Date,TemperatureHighF,TemperatureAvgF,TemperatureLowF,DewpointHighF,DewpointAvgF,DewpointLowF,HumidityHigh,HumidityAvg,HumidityLow,PressureMaxIn,PressureMinIn,WindSpeedMaxMPH,WindSpeedAvgMPH,GustSpeedMaxMPH,PrecipitationSumIn
2013-11-1,69.4,57.2,50.0,56.5,46.6,38.7,98,72,35,29.23,29.06,16,2,20,0.08
2013-11-2,58.3,49.1,39.4,43.5,37.5,31.6,86,66,47,29.56,29.23,18,3,23,0.08
2013-11-3,59.2,45.5,34.7,43.5,31.7,27.8,90,62,34,29.71,29.56,13,2,17,0.08
2013-11-4,61.2,52.2,42.3,41.7,37.1,31.5,71,57,40,29.68,29.59,13,2,17,0.08
2013-11-5,67.1,58.5,51.3,43.9,38.8,0.0,65,48,36,29.71,29.53,16,5,21,0.08
2013-11-6,60.4,55.2,43.2,56.7,46.4,37.6,94,74,49,29.59,29.38,25,5,31,0.28
2013-11-7,53.6,42.9,36.1,40.0,29.5,24.6,90,62,34,29.74,29.59,16,4,21,0.08
2013-11-8,59.9,44.1,31.1,38.0,28.7,24.9,85,58,31,29.77,29.59,16,2,21,0.00
2013-11-9,64.0,49.4,36.3,36.2,31.6,25.6,70,52,34,29.62,29.50,15,2,19,0.08
2013-11-10,61.3,48.6,36.3,43.3,30.2,22.1,84,52,27,29.74,29.62,19,4,24,0.08
2013-11-11,68.5,50.7,33.3,38.4,30.1,23.7,75,49,25,29.68,29.53,30,3,37,0.08
2013-11-12,48.9,36.2,27.3,36.3,21.5,12.8,80,57,36,30.03,29.65,34,15,42,0.08
2013-11-13,47.1,32.3,22.5,21.3,15.7,12.1,72,52,32,30.06,29.80,11,3,14,0.08
2013-11-14,57.7,34.8,25.0,24.7,16.6,13.5,65,50,27,29.80,29.53,14,2,18,0.00
2013-11-15,52.7,47.3,37.6,48.2,33.7,16.4,86,60,41,29.53,29.41,17,4,22,0.00
2013-11-16,65.3,59.6,52.7,59.3,53.7,47.9,86,81,73,29.41,29.23,22,7,28,0.00
2013-11-17,72.7,64.9,52.3,67.4,56.5,31.2,96,77,33,29.32,29.00,34,9,41,1.73
2013-11-18,61.2,50.4,37.9,37.8,28.8,20.8,63,44,30,29.65,29.32,22,6,28,0.00
2013-11-19,49.5,41.9,36.9,25.5,23.4,20.7,59,48,38,29.71,29.56,19,8,24,0.00
2013-11-20,61.0,46.5,32.2,33.4,28.1,22.5,78,51,33,29.59,29.47,16,6,21,0.00
2013-11-21,66.6,55.5,48.6,54.9,43.1,30.0,91,65,46,29.59,29.53,16,5,20,0.12
2013-11-22,58.5,50.4,41.5,55.8,47.2,34.9,96,89,76,29.80,29.53,28,10,34,0.43
2013-11-23,44.6,36.4,23.7,35.8,21.6,7.8,81,57,32,30.00,29.77,37,16,45,0.00
2013-11-24,33.1,26.3,18.7,10.8,8.6,6.4,60,47,37,30.06,29.83,25,9,32,0.00
2013-11-25,41.0,33.3,28.8,30.5,18.8,10.1,88,57,40,29.83,29.53,12,4,16,0.00
2013-11-26,37.2,35.2,31.6,34.3,29.5,15.6,93,81,50,29.56,29.32,30,10,36,0.16
2013-11-27,31.6,24.4,16.9,15.9,6.6,3.4,60,47,36,29.74,29.47,28,9,35,0.00
2013-11-28,44.8,28.7,16.5,18.8,12.7,5.2,68,52,34,29.85,29.68,15,3,19,0.00
2013-11-29,52.9,35.4,22.3,27.7,19.8,12.6,75,54,35,29.94,29.80,13,2,17,0.00
2013-11-30,58.5,42.0,26.4,28.9,22.1,16.0,70,47,29,29.80,29.56,16,5,20,0.00